sensor_id;sensor_type;location;lat;lon;timestamp;temperature;humidity
75190;HTU21D;69198;44.694;37.790;2023-05-18T00:00:48;17.77;53.97
75190;HTU21D;69198;44.694;37.790;2023-05-18T00:01:53;17.76;53.43
75190;HTU21D;69198;44.694;37.790;2023-05-18T00:02:54;17.81;53.70
75190;HTU21D;69198;44.694;37.790;2023-05-18T00:03:57;17.79;54.07
75190;HTU21D;69198;44.694;37.790;2023-05-18T00:04:58;17.80;53.49
75190;HTU21D;69198;44.694;37.790;2023-05-18T00:06:01;17.77;53.63
75190;HTU21D;69198;44.694;37.790;2023-05-18T00:07:03;17.73;54.39
75190;HTU21D;69198;44.694;37.790;2023-05-18T00:08:04;17.69;54.04
75190;HTU21D;69198;44.694;37.790;2023-05-18T00:09:06;17.67;53.81
75190;HTU21D;69198;44.694;37.790;2023-05-18T00:10:07;17.64;54.53
75190;HTU21D;69198;44.694;37.790;2023-05-18T00:11:08;17.64;55.28
75190;HTU21D;69198;44.694;37.790;2023-05-18T00:12:10;17.58;54.97
75190;HTU21D;69198;44.694;37.790;2023-05-18T00:13:10;17.53;55.16
75190;HTU21D;69198;44.694;37.790;2023-05-18T00:14:11;17.52;55.29
75190;HTU21D;69198;44.694;37.790;2023-05-18T00:15:12;17.50;55.19
75190;HTU21D;69198;44.694;37.790;2023-05-18T00:16:13;17.51;55.43
75190;HTU21D;69198;44.694;37.790;2023-05-18T00:17:15;17.50;54.91
75190;HTU21D;69198;44.694;37.790;2023-05-18T00:18:16;17.50;55.07
75190;HTU21D;69198;44.694;37.790;2023-05-18T00:19:18;17.46;54.96
75190;HTU21D;69198;44.694;37.790;2023-05-18T00:20:19;17.49;54.95
75190;HTU21D;69198;44.694;37.790;2023-05-18T00:21:21;17.46;55.38
75190;HTU21D;69198;44.694;37.790;2023-05-18T00:22:22;17.47;54.88
75190;HTU21D;69198;44.694;37.790;2023-05-18T00:23:27;17.48;55.26
75190;HTU21D;69198;44.694;37.790;2023-05-18T00:24:32;17.45;55.12
75190;HTU21D;69198;44.694;37.790;2023-05-18T00:25:33;17.44;55.23
75190;HTU21D;69198;44.694;37.790;2023-05-18T00:26:34;17.44;54.97
75190;HTU21D;69198;44.694;37.790;2023-05-18T00:27:35;17.47;54.81
75190;HTU21D;69198;44.694;37.790;2023-05-18T00:28:36;17.50;54.34
75190;HTU21D;69198;44.694;37.790;2023-05-18T00:29:38;17.53;53.88
75190;HTU21D;69198;44.694;37.790;2023-05-18T00:30:39;17.52;54.25
75190;HTU21D;69198;44.694;37.790;2023-05-18T00:31:40;17.50;54.65
75190;HTU21D;69198;44.694;37.790;2023-05-18T00:32:42;17.54;54.77
75190;HTU21D;69198;44.694;37.790;2023-05-18T00:33:43;17.60;53.42
75190;HTU21D;69198;44.694;37.790;2023-05-18T00:34:46;17.68;53.25
75190;HTU21D;69198;44.694;37.790;2023-05-18T00:35:47;17.70;53.67
75190;HTU21D;69198;44.694;37.790;2023-05-18T00:36:48;17.65;54.12
75190;HTU21D;69198;44.694;37.790;2023-05-18T00:37:49;17.67;53.78
75190;HTU21D;69198;44.694;37.790;2023-05-18T00:38:50;17.69;53.52
75190;HTU21D;69198;44.694;37.790;2023-05-18T00:39:54;17.72;53.75
75190;HTU21D;69198;44.694;37.790;2023-05-18T00:40:56;17.73;53.47
75190;HTU21D;69198;44.694;37.790;2023-05-18T00:41:57;17.76;53.65
75190;HTU21D;69198;44.694;37.790;2023-05-18T00:42:59;17.78;53.56
75190;HTU21D;69198;44.694;37.790;2023-05-18T00:44:00;17.79;53.20
75190;HTU21D;69198;44.694;37.790;2023-05-18T00:45:01;17.78;53.33
75190;HTU21D;69198;44.694;37.790;2023-05-18T00:46:03;17.83;53.56
75190;HTU21D;69198;44.694;37.790;2023-05-18T00:47:04;17.81;53.30
75190;HTU21D;69198;44.694;37.790;2023-05-18T00:48:05;17.82;52.85
75190;HTU21D;69198;44.694;37.790;2023-05-18T00:49:06;17.84;53.24
75190;HTU21D;69198;44.694;37.790;2023-05-18T00:50:08;17.81;53.58
75190;HTU21D;69198;44.694;37.790;2023-05-18T00:51:09;17.83;53.04
75190;HTU21D;69198;44.694;37.790;2023-05-18T00:52:11;17.85;53.10
75190;HTU21D;69198;44.694;37.790;2023-05-18T00:53:12;17.88;52.76
75190;HTU21D;69198;44.694;37.790;2023-05-18T00:54:13;17.90;52.69
75190;HTU21D;69198;44.694;37.790;2023-05-18T00:55:14;17.89;53.11
75190;HTU21D;69198;44.694;37.790;2023-05-18T00:56:15;17.98;51.88
75190;HTU21D;69198;44.694;37.790;2023-05-18T00:57:17;18.05;52.72
75190;HTU21D;69198;44.694;37.790;2023-05-18T00:58:18;18.07;52.09
75190;HTU21D;69198;44.694;37.790;2023-05-18T00:59:20;18.07;51.61
75190;HTU21D;69198;44.694;37.790;2023-05-18T01:00:21;18.08;51.90
75190;HTU21D;69198;44.694;37.790;2023-05-18T01:01:28;18.03;52.54
75190;HTU21D;69198;44.694;37.790;2023-05-18T01:02:29;18.00;53.00
75190;HTU21D;69198;44.694;37.790;2023-05-18T01:03:32;17.95;52.97
75190;HTU21D;69198;44.694;37.790;2023-05-18T01:04:34;17.94;52.35
75190;HTU21D;69198;44.694;37.790;2023-05-18T01:05:35;17.90;53.24
75190;HTU21D;69198;44.694;37.790;2023-05-18T01:06:36;17.85;52.54
75190;HTU21D;69198;44.694;37.790;2023-05-18T01:07:41;17.87;52.91
75190;HTU21D;69198;44.694;37.790;2023-05-18T01:08:42;17.88;52.01
75190;HTU21D;69198;44.694;37.790;2023-05-18T01:09:44;17.84;52.47
75190;HTU21D;69198;44.694;37.790;2023-05-18T01:10:45;17.91;51.95
75190;HTU21D;69198;44.694;37.790;2023-05-18T01:12:00;17.96;51.94
75190;HTU21D;69198;44.694;37.790;2023-05-18T01:13:13;17.88;52.91
75190;HTU21D;69198;44.694;37.790;2023-05-18T01:15:19;17.76;54.21
75190;HTU21D;69198;44.694;37.790;2023-05-18T01:16:25;17.67;53.59
75190;HTU21D;69198;44.694;37.790;2023-05-18T01:17:44;17.70;53.56
75190;HTU21D;69198;44.694;37.790;2023-05-18T01:18:53;17.66;53.43
75190;HTU21D;69198;44.694;37.790;2023-05-18T01:21:43;17.66;54.00
75190;HTU21D;69198;44.694;37.790;2023-05-18T01:23:40;17.69;53.17
75190;HTU21D;69198;44.694;37.790;2023-05-18T01:24:47;17.64;53.65
75190;HTU21D;69198;44.694;37.790;2023-05-18T01:26:59;17.72;53.14
75190;HTU21D;69198;44.694;37.790;2023-05-18T01:28:03;17.70;53.49
75190;HTU21D;69198;44.694;37.790;2023-05-18T01:29:08;17.77;53.33
75190;HTU21D;69198;44.694;37.790;2023-05-18T01:30:15;17.80;52.98
75190;HTU21D;69198;44.694;37.790;2023-05-18T01:31:19;17.81;53.11
75190;HTU21D;69198;44.694;37.790;2023-05-18T01:32:21;17.83;53.11
75190;HTU21D;69198;44.694;37.790;2023-05-18T01:33:22;17.89;52.36
75190;HTU21D;69198;44.694;37.790;2023-05-18T01:34:24;17.96;52.29
75190;HTU21D;69198;44.694;37.790;2023-05-18T01:35:26;18.00;52.25
75190;HTU21D;69198;44.694;37.790;2023-05-18T01:36:27;17.98;52.83
75190;HTU21D;69198;44.694;37.790;2023-05-18T01:37:28;17.94;52.72
75190;HTU21D;69198;44.694;37.790;2023-05-18T01:38:29;17.92;52.30
75190;HTU21D;69198;44.694;37.790;2023-05-18T01:39:30;17.93;52.01
75190;HTU21D;69198;44.694;37.790;2023-05-18T01:41:55;17.87;52.20
75190;HTU21D;69198;44.694;37.790;2023-05-18T01:43:10;17.87;52.23
75190;HTU21D;69198;44.694;37.790;2023-05-18T01:44:42;17.83;52.33
75190;HTU21D;69198;44.694;37.790;2023-05-18T01:45:47;17.68;53.62
75190;HTU21D;69198;44.694;37.790;2023-05-18T01:47:07;17.67;53.51
75190;HTU21D;69198;44.694;37.790;2023-05-18T01:48:15;17.63;53.75
75190;HTU21D;69198;44.694;37.790;2023-05-18T01:49:32;17.63;53.04
75190;HTU21D;69198;44.694;37.790;2023-05-18T01:50:35;17.63;53.68
75190;HTU21D;69198;44.694;37.790;2023-05-18T01:52:57;17.64;53.75
75190;HTU21D;69198;44.694;37.790;2023-05-18T01:54:03;17.62;53.36
75190;HTU21D;69198;44.694;37.790;2023-05-18T01:55:06;17.62;53.93
75190;HTU21D;69198;44.694;37.790;2023-05-18T01:56:09;17.64;53.51
75190;HTU21D;69198;44.694;37.790;2023-05-18T01:57:12;17.65;53.45
75190;HTU21D;69198;44.694;37.790;2023-05-18T01:58:15;17.72;53.25
75190;HTU21D;69198;44.694;37.790;2023-05-18T01:59:18;17.76;53.10
75190;HTU21D;69198;44.694;37.790;2023-05-18T02:00:19;17.78;53.27
75190;HTU21D;69198;44.694;37.790;2023-05-18T02:01:22;17.77;53.78
75190;HTU21D;69198;44.694;37.790;2023-05-18T02:02:23;17.77;53.78
75190;HTU21D;69198;44.694;37.790;2023-05-18T02:03:26;17.77;53.93
75190;HTU21D;69198;44.694;37.790;2023-05-18T02:04:29;17.76;53.44
75190;HTU21D;69198;44.694;37.790;2023-05-18T02:05:30;17.84;53.56
75190;HTU21D;69198;44.694;37.790;2023-05-18T02:06:31;17.87;53.46
75190;HTU21D;69198;44.694;37.790;2023-05-18T02:07:33;17.84;52.99
75190;HTU21D;69198;44.694;37.790;2023-05-18T02:08:34;17.81;53.17
75190;HTU21D;69198;44.694;37.790;2023-05-18T02:09:35;17.87;53.21
75190;HTU21D;69198;44.694;37.790;2023-05-18T02:10:36;17.91;53.24
75190;HTU21D;69198;44.694;37.790;2023-05-18T02:11:37;17.94;52.47
75190;HTU21D;69198;44.694;37.790;2023-05-18T02:12:38;17.96;52.58
75190;HTU21D;69198;44.694;37.790;2023-05-18T02:13:39;17.99;53.06
75190;HTU21D;69198;44.694;37.790;2023-05-18T02:14:40;17.97;53.10
75190;HTU21D;69198;44.694;37.790;2023-05-18T02:15:41;18.03;51.58
75190;HTU21D;69198;44.694;37.790;2023-05-18T02:16:46;18.15;50.83
75190;HTU21D;69198;44.694;37.790;2023-05-18T02:17:54;18.19;51.37
75190;HTU21D;69198;44.694;37.790;2023-05-18T02:18:57;18.21;51.61
75190;HTU21D;69198;44.694;37.790;2023-05-18T02:19:59;18.17;51.31
75190;HTU21D;69198;44.694;37.790;2023-05-18T02:21:01;18.13;51.96
75190;HTU21D;69198;44.694;37.790;2023-05-18T02:22:03;18.12;51.69
75190;HTU21D;69198;44.694;37.790;2023-05-18T02:23:06;18.09;52.14
75190;HTU21D;69198;44.694;37.790;2023-05-18T02:24:18;18.13;51.69
75190;HTU21D;69198;44.694;37.790;2023-05-18T02:25:19;18.20;51.96
75190;HTU21D;69198;44.694;37.790;2023-05-18T02:26:21;18.22;51.37
75190;HTU21D;69198;44.694;37.790;2023-05-18T02:27:26;18.22;51.50
75190;HTU21D;69198;44.694;37.790;2023-05-18T02:28:27;18.23;51.64
75190;HTU21D;69198;44.694;37.790;2023-05-18T02:29:28;18.25;51.24
75190;HTU21D;69198;44.694;37.790;2023-05-18T02:30:30;18.24;52.14
75190;HTU21D;69198;44.694;37.790;2023-05-18T02:31:32;18.24;51.90
75190;HTU21D;69198;44.694;37.790;2023-05-18T02:32:35;18.23;51.11
75190;HTU21D;69198;44.694;37.790;2023-05-18T02:33:40;18.28;50.57
75190;HTU21D;69198;44.694;37.790;2023-05-18T02:34:41;18.40;49.34
75190;HTU21D;69198;44.694;37.790;2023-05-18T02:35:42;18.58;49.31
75190;HTU21D;69198;44.694;37.790;2023-05-18T02:36:43;18.82;48.90
75190;HTU21D;69198;44.694;37.790;2023-05-18T02:37:45;19.05;49.18
75190;HTU21D;69198;44.694;37.790;2023-05-18T02:38:47;19.21;48.13
75190;HTU21D;69198;44.694;37.790;2023-05-18T02:39:48;19.41;47.14
75190;HTU21D;69198;44.694;37.790;2023-05-18T02:40:49;19.58;47.13
75190;HTU21D;69198;44.694;37.790;2023-05-18T02:41:51;19.74;46.30
75190;HTU21D;69198;44.694;37.790;2023-05-18T02:42:53;19.84;46.80
75190;HTU21D;69198;44.694;37.790;2023-05-18T02:43:54;19.86;46.59
75190;HTU21D;69198;44.694;37.790;2023-05-18T02:44:55;19.94;45.47
75190;HTU21D;69198;44.694;37.790;2023-05-18T02:45:57;20.02;45.28
75190;HTU21D;69198;44.694;37.790;2023-05-18T02:46:58;20.10;45.81
75190;HTU21D;69198;44.694;37.790;2023-05-18T02:48:00;20.16;46.60
75190;HTU21D;69198;44.694;37.790;2023-05-18T02:49:01;20.22;46.22
75190;HTU21D;69198;44.694;37.790;2023-05-18T02:50:02;20.26;45.48
75190;HTU21D;69198;44.694;37.790;2023-05-18T02:51:06;20.36;44.29
75190;HTU21D;69198;44.694;37.790;2023-05-18T02:52:07;20.53;44.50
75190;HTU21D;69198;44.694;37.790;2023-05-18T02:53:08;20.61;44.76
75190;HTU21D;69198;44.694;37.790;2023-05-18T02:54:09;20.68;44.71
75190;HTU21D;69198;44.694;37.790;2023-05-18T02:55:13;20.76;43.91
75190;HTU21D;69198;44.694;37.790;2023-05-18T02:56:29;20.88;44.21
75190;HTU21D;69198;44.694;37.790;2023-05-18T02:57:40;20.96;43.55
75190;HTU21D;69198;44.694;37.790;2023-05-18T02:58:49;21.08;43.79
75190;HTU21D;69198;44.694;37.790;2023-05-18T03:00:02;21.24;43.03
75190;HTU21D;69198;44.694;37.790;2023-05-18T03:01:10;21.31;43.05
75190;HTU21D;69198;44.694;37.790;2023-05-18T03:02:17;21.35;41.65
75190;HTU21D;69198;44.694;37.790;2023-05-18T03:03:18;21.42;42.43
75190;HTU21D;69198;44.694;37.790;2023-05-18T03:04:20;21.45;41.80
75190;HTU21D;69198;44.694;37.790;2023-05-18T03:05:26;21.49;40.35
75190;HTU21D;69198;44.694;37.790;2023-05-18T03:06:27;21.54;40.71
75190;HTU21D;69198;44.694;37.790;2023-05-18T03:07:30;21.61;40.77
75190;HTU21D;69198;44.694;37.790;2023-05-18T03:08:34;21.66;40.75
75190;HTU21D;69198;44.694;37.790;2023-05-18T03:09:37;21.79;40.86
75190;HTU21D;69198;44.694;37.790;2023-05-18T03:10:38;21.90;40.02
75190;HTU21D;69198;44.694;37.790;2023-05-18T03:11:39;21.91;39.79
75190;HTU21D;69198;44.694;37.790;2023-05-18T03:12:41;21.95;40.84
75190;HTU21D;69198;44.694;37.790;2023-05-18T03:13:42;22.02;39.91
75190;HTU21D;69198;44.694;37.790;2023-05-18T03:14:43;22.12;39.64
75190;HTU21D;69198;44.694;37.790;2023-05-18T03:15:45;22.19;39.01
75190;HTU21D;69198;44.694;37.790;2023-05-18T03:16:47;22.31;38.25
75190;HTU21D;69198;44.694;37.790;2023-05-18T03:17:53;22.32;39.04
75190;HTU21D;69198;44.694;37.790;2023-05-18T03:18:56;22.32;39.17
75190;HTU21D;69198;44.694;37.790;2023-05-18T03:20:08;22.28;40.11
75190;HTU21D;69198;44.694;37.790;2023-05-18T03:21:14;22.29;39.81
75190;HTU21D;69198;44.694;37.790;2023-05-18T03:22:16;22.34;39.14
75190;HTU21D;69198;44.694;37.790;2023-05-18T03:23:18;22.38;40.06
75190;HTU21D;69198;44.694;37.790;2023-05-18T03:24:20;22.49;40.24
75190;HTU21D;69198;44.694;37.790;2023-05-18T03:25:23;22.52;38.89
75190;HTU21D;69198;44.694;37.790;2023-05-18T03:26:26;22.61;37.98
75190;HTU21D;69198;44.694;37.790;2023-05-18T03:27:30;22.70;38.14
75190;HTU21D;69198;44.694;37.790;2023-05-18T03:28:31;22.72;37.64
75190;HTU21D;69198;44.694;37.790;2023-05-18T03:29:33;22.69;37.49
75190;HTU21D;69198;44.694;37.790;2023-05-18T03:30:36;22.69;37.79
75190;HTU21D;69198;44.694;37.790;2023-05-18T03:31:38;22.73;38.21
75190;HTU21D;69198;44.694;37.790;2023-05-18T03:32:41;22.72;38.17
75190;HTU21D;69198;44.694;37.790;2023-05-18T03:33:42;22.75;37.69
75190;HTU21D;69198;44.694;37.790;2023-05-18T03:34:43;22.80;38.59
75190;HTU21D;69198;44.694;37.790;2023-05-18T03:35:45;22.85;38.98
75190;HTU21D;69198;44.694;37.790;2023-05-18T03:36:46;22.88;38.32
75190;HTU21D;69198;44.694;37.790;2023-05-18T03:37:47;22.87;38.70
75190;HTU21D;69198;44.694;37.790;2023-05-18T03:38:48;22.88;38.85
75190;HTU21D;69198;44.694;37.790;2023-05-18T03:39:50;22.91;39.00
75190;HTU21D;69198;44.694;37.790;2023-05-18T03:40:52;22.87;38.55
75190;HTU21D;69198;44.694;37.790;2023-05-18T03:41:53;22.85;39.07
75190;HTU21D;69198;44.694;37.790;2023-05-18T03:42:54;22.87;38.75
75190;HTU21D;69198;44.694;37.790;2023-05-18T03:43:56;22.85;39.07
75190;HTU21D;69198;44.694;37.790;2023-05-18T03:44:57;22.75;39.10
75190;HTU21D;69198;44.694;37.790;2023-05-18T03:45:58;22.77;39.32
75190;HTU21D;69198;44.694;37.790;2023-05-18T03:47:00;22.77;39.03
75190;HTU21D;69198;44.694;37.790;2023-05-18T03:48:01;22.83;39.09
75190;HTU21D;69198;44.694;37.790;2023-05-18T03:49:03;22.83;39.64
75190;HTU21D;69198;44.694;37.790;2023-05-18T03:50:11;22.88;39.45
75190;HTU21D;69198;44.694;37.790;2023-05-18T03:51:12;22.90;39.63
75190;HTU21D;69198;44.694;37.790;2023-05-18T03:52:13;22.94;38.75
75190;HTU21D;69198;44.694;37.790;2023-05-18T03:53:15;23.00;39.04
75190;HTU21D;69198;44.694;37.790;2023-05-18T03:54:21;23.06;38.37
75190;HTU21D;69198;44.694;37.790;2023-05-18T03:55:22;23.13;38.88
75190;HTU21D;69198;44.694;37.790;2023-05-18T03:56:23;23.23;39.15
75190;HTU21D;69198;44.694;37.790;2023-05-18T03:57:25;23.28;38.73
75190;HTU21D;69198;44.694;37.790;2023-05-18T03:58:26;23.25;38.72
75190;HTU21D;69198;44.694;37.790;2023-05-18T03:59:29;23.22;38.65
75190;HTU21D;69198;44.694;37.790;2023-05-18T04:00:30;23.21;38.47
75190;HTU21D;69198;44.694;37.790;2023-05-18T04:01:31;23.29;38.48
75190;HTU21D;69198;44.694;37.790;2023-05-18T04:02:33;23.38;38.48
75190;HTU21D;69198;44.694;37.790;2023-05-18T04:03:34;23.39;38.22
75190;HTU21D;69198;44.694;37.790;2023-05-18T04:04:35;23.50;37.42
75190;HTU21D;69198;44.694;37.790;2023-05-18T04:05:37;23.55;36.31
75190;HTU21D;69198;44.694;37.790;2023-05-18T04:06:38;23.50;36.67
75190;HTU21D;69198;44.694;37.790;2023-05-18T04:07:39;23.47;36.69
75190;HTU21D;69198;44.694;37.790;2023-05-18T04:08:45;23.55;36.92
75190;HTU21D;69198;44.694;37.790;2023-05-18T04:09:47;23.58;36.96
75190;HTU21D;69198;44.694;37.790;2023-05-18T04:10:51;23.59;36.98
75190;HTU21D;69198;44.694;37.790;2023-05-18T04:11:52;23.65;36.72
75190;HTU21D;69198;44.694;37.790;2023-05-18T04:12:53;23.69;36.63
75190;HTU21D;69198;44.694;37.790;2023-05-18T04:13:54;23.70;36.38
75190;HTU21D;69198;44.694;37.790;2023-05-18T04:14:57;23.70;36.40
75190;HTU21D;69198;44.694;37.790;2023-05-18T04:15:59;23.72;36.63
75190;HTU21D;69198;44.694;37.790;2023-05-18T04:17:00;23.77;36.95
75190;HTU21D;69198;44.694;37.790;2023-05-18T04:18:06;23.90;36.60
75190;HTU21D;69198;44.694;37.790;2023-05-18T04:19:07;23.94;36.28
75190;HTU21D;69198;44.694;37.790;2023-05-18T04:20:11;23.99;36.08
75190;HTU21D;69198;44.694;37.790;2023-05-18T04:21:15;24.05;35.50
75190;HTU21D;69198;44.694;37.790;2023-05-18T04:22:19;24.00;35.60
75190;HTU21D;69198;44.694;37.790;2023-05-18T04:23:21;23.99;36.26
75190;HTU21D;69198;44.694;37.790;2023-05-18T04:24:22;23.98;36.53
75190;HTU21D;69198;44.694;37.790;2023-05-18T04:25:24;23.99;36.27
75190;HTU21D;69198;44.694;37.790;2023-05-18T04:26:28;24.02;35.44
75190;HTU21D;69198;44.694;37.790;2023-05-18T04:27:29;24.02;35.64
75190;HTU21D;69198;44.694;37.790;2023-05-18T04:28:31;24.10;36.59
75190;HTU21D;69198;44.694;37.790;2023-05-18T04:29:32;24.09;35.98
75190;HTU21D;69198;44.694;37.790;2023-05-18T04:30:34;24.06;35.32
75190;HTU21D;69198;44.694;37.790;2023-05-18T04:31:37;24.01;35.31
75190;HTU21D;69198;44.694;37.790;2023-05-18T04:32:41;24.03;35.90
75190;HTU21D;69198;44.694;37.790;2023-05-18T04:33:42;24.13;35.78
75190;HTU21D;69198;44.694;37.790;2023-05-18T04:34:46;24.16;35.03
75190;HTU21D;69198;44.694;37.790;2023-05-18T04:35:50;24.14;35.40
75190;HTU21D;69198;44.694;37.790;2023-05-18T04:36:56;24.15;35.85
75190;HTU21D;69198;44.694;37.790;2023-05-18T04:38:00;24.20;35.44
75190;HTU21D;69198;44.694;37.790;2023-05-18T04:39:02;24.23;35.63
75190;HTU21D;69198;44.694;37.790;2023-05-18T04:40:09;24.28;36.25
75190;HTU21D;69198;44.694;37.790;2023-05-18T04:41:13;24.33;34.91
75190;HTU21D;69198;44.694;37.790;2023-05-18T04:42:20;24.29;35.37
75190;HTU21D;69198;44.694;37.790;2023-05-18T04:43:22;24.30;34.99
75190;HTU21D;69198;44.694;37.790;2023-05-18T04:44:27;24.28;35.31
75190;HTU21D;69198;44.694;37.790;2023-05-18T04:45:29;24.31;34.80
75190;HTU21D;69198;44.694;37.790;2023-05-18T04:46:31;24.36;34.98
75190;HTU21D;69198;44.694;37.790;2023-05-18T04:47:34;24.45;35.18
75190;HTU21D;69198;44.694;37.790;2023-05-18T04:48:35;24.47;34.10
75190;HTU21D;69198;44.694;37.790;2023-05-18T04:49:38;24.42;34.81
75190;HTU21D;69198;44.694;37.790;2023-05-18T04:50:39;24.43;35.45
75190;HTU21D;69198;44.694;37.790;2023-05-18T04:51:41;24.43;35.20
75190;HTU21D;69198;44.694;37.790;2023-05-18T04:52:44;24.44;34.57
75190;HTU21D;69198;44.694;37.790;2023-05-18T04:53:50;24.45;35.13
75190;HTU21D;69198;44.694;37.790;2023-05-18T04:54:51;24.47;34.10
75190;HTU21D;69198;44.694;37.790;2023-05-18T04:55:52;24.59;34.58
75190;HTU21D;69198;44.694;37.790;2023-05-18T04:56:54;24.69;34.41
75190;HTU21D;69198;44.694;37.790;2023-05-18T04:57:55;24.66;33.54
75190;HTU21D;69198;44.694;37.790;2023-05-18T04:59:00;24.69;33.05
75190;HTU21D;69198;44.694;37.790;2023-05-18T05:00:03;24.58;33.47
75190;HTU21D;69198;44.694;37.790;2023-05-18T05:01:07;24.68;33.95
75190;HTU21D;69198;44.694;37.790;2023-05-18T05:02:08;24.80;34.50
75190;HTU21D;69198;44.694;37.790;2023-05-18T05:03:09;24.97;33.66
75190;HTU21D;69198;44.694;37.790;2023-05-18T05:04:11;24.94;33.70
75190;HTU21D;69198;44.694;37.790;2023-05-18T05:05:12;24.91;33.41
75190;HTU21D;69198;44.694;37.790;2023-05-18T05:06:13;24.85;32.99
75190;HTU21D;69198;44.694;37.790;2023-05-18T05:07:15;24.89;33.58
75190;HTU21D;69198;44.694;37.790;2023-05-18T05:08:19;24.91;31.60
75190;HTU21D;69198;44.694;37.790;2023-05-18T05:09:20;24.86;31.90
75190;HTU21D;69198;44.694;37.790;2023-05-18T05:10:21;24.90;32.54
75190;HTU21D;69198;44.694;37.790;2023-05-18T05:11:22;25.06;32.60
75190;HTU21D;69198;44.694;37.790;2023-05-18T05:12:24;25.09;31.77
75190;HTU21D;69198;44.694;37.790;2023-05-18T05:13:25;25.07;31.57
75190;HTU21D;69198;44.694;37.790;2023-05-18T05:14:26;25.01;30.54
75190;HTU21D;69198;44.694;37.790;2023-05-18T05:15:27;24.98;31.32
75190;HTU21D;69198;44.694;37.790;2023-05-18T05:16:28;24.92;32.24
75190;HTU21D;69198;44.694;37.790;2023-05-18T05:17:29;24.92;31.91
75190;HTU21D;69198;44.694;37.790;2023-05-18T05:18:30;24.98;31.98
75190;HTU21D;69198;44.694;37.790;2023-05-18T05:19:31;25.06;31.30
75190;HTU21D;69198;44.694;37.790;2023-05-18T05:20:33;25.09;31.79
75190;HTU21D;69198;44.694;37.790;2023-05-18T05:21:34;25.09;31.62
75190;HTU21D;69198;44.694;37.790;2023-05-18T05:22:36;25.05;32.26
75190;HTU21D;69198;44.694;37.790;2023-05-18T05:23:40;25.05;32.60
75190;HTU21D;69198;44.694;37.790;2023-05-18T05:24:42;25.06;31.99
75190;HTU21D;69198;44.694;37.790;2023-05-18T05:25:43;25.12;32.36
75190;HTU21D;69198;44.694;37.790;2023-05-18T05:26:44;25.19;31.83
75190;HTU21D;69198;44.694;37.790;2023-05-18T05:27:45;25.20;32.28
75190;HTU21D;69198;44.694;37.790;2023-05-18T05:28:47;25.18;32.81
75190;HTU21D;69198;44.694;37.790;2023-05-18T05:29:48;25.21;31.64
75190;HTU21D;69198;44.694;37.790;2023-05-18T05:30:50;25.19;31.31
75190;HTU21D;69198;44.694;37.790;2023-05-18T05:31:51;25.16;32.26
75190;HTU21D;69198;44.694;37.790;2023-05-18T05:32:52;25.18;32.95
75190;HTU21D;69198;44.694;37.790;2023-05-18T05:33:54;25.19;32.06
75190;HTU21D;69198;44.694;37.790;2023-05-18T05:34:55;25.21;32.81
75190;HTU21D;69198;44.694;37.790;2023-05-18T05:35:56;25.25;31.28
75190;HTU21D;69198;44.694;37.790;2023-05-18T05:36:57;25.19;31.96
75190;HTU21D;69198;44.694;37.790;2023-05-18T05:37:58;25.15;32.89
75190;HTU21D;69198;44.694;37.790;2023-05-18T05:38:59;25.10;32.78
75190;HTU21D;69198;44.694;37.790;2023-05-18T05:40:04;25.10;33.22
75190;HTU21D;69198;44.694;37.790;2023-05-18T05:41:09;25.09;33.01
75190;HTU21D;69198;44.694;37.790;2023-05-18T05:42:13;25.09;33.09
75190;HTU21D;69198;44.694;37.790;2023-05-18T05:43:14;25.07;33.17
75190;HTU21D;69198;44.694;37.790;2023-05-18T05:44:16;25.07;31.97
75190;HTU21D;69198;44.694;37.790;2023-05-18T05:45:18;25.06;32.79
75190;HTU21D;69198;44.694;37.790;2023-05-18T05:46:24;25.07;32.71
75190;HTU21D;69198;44.694;37.790;2023-05-18T05:47:26;25.05;33.34
75190;HTU21D;69198;44.694;37.790;2023-05-18T05:48:27;25.12;33.38
75190;HTU21D;69198;44.694;37.790;2023-05-18T05:49:28;25.19;33.48
75190;HTU21D;69198;44.694;37.790;2023-05-18T05:50:29;25.24;33.26
75190;HTU21D;69198;44.694;37.790;2023-05-18T05:51:34;25.14;32.69
75190;HTU21D;69198;44.694;37.790;2023-05-18T05:52:35;25.13;32.72
75190;HTU21D;69198;44.694;37.790;2023-05-18T05:53:38;25.16;33.23
75190;HTU21D;69198;44.694;37.790;2023-05-18T05:54:40;25.23;33.07
75190;HTU21D;69198;44.694;37.790;2023-05-18T05:55:41;25.24;32.88
75190;HTU21D;69198;44.694;37.790;2023-05-18T05:56:46;25.30;32.64
75190;HTU21D;69198;44.694;37.790;2023-05-18T05:57:49;25.29;31.58
75190;HTU21D;69198;44.694;37.790;2023-05-18T05:58:50;25.29;32.06
75190;HTU21D;69198;44.694;37.790;2023-05-18T05:59:51;25.30;31.55
75190;HTU21D;69198;44.694;37.790;2023-05-18T06:00:52;25.40;31.03
75190;HTU21D;69198;44.694;37.790;2023-05-18T06:01:55;25.44;31.35
75190;HTU21D;69198;44.694;37.790;2023-05-18T06:02:56;25.39;31.27
75190;HTU21D;69198;44.694;37.790;2023-05-18T06:04:18;25.38;32.13
75190;HTU21D;69198;44.694;37.790;2023-05-18T06:05:20;25.43;32.22
75190;HTU21D;69198;44.694;37.790;2023-05-18T06:06:21;25.44;31.17
75190;HTU21D;69198;44.694;37.790;2023-05-18T06:07:22;25.35;31.93
75190;HTU21D;69198;44.694;37.790;2023-05-18T06:08:23;25.33;32.09
75190;HTU21D;69198;44.694;37.790;2023-05-18T06:09:24;25.36;32.87
75190;HTU21D;69198;44.694;37.790;2023-05-18T06:10:26;25.43;32.06
75190;HTU21D;69198;44.694;37.790;2023-05-18T06:11:27;25.48;30.74
75190;HTU21D;69198;44.694;37.790;2023-05-18T06:12:28;25.45;31.67
75190;HTU21D;69198;44.694;37.790;2023-05-18T06:13:29;25.37;31.33
75190;HTU21D;69198;44.694;37.790;2023-05-18T06:14:31;25.35;32.29
75190;HTU21D;69198;44.694;37.790;2023-05-18T06:15:32;25.40;32.24
75190;HTU21D;69198;44.694;37.790;2023-05-18T06:16:34;25.38;32.68
75190;HTU21D;69198;44.694;37.790;2023-05-18T06:17:35;25.44;32.55
75190;HTU21D;69198;44.694;37.790;2023-05-18T06:18:36;25.43;33.05
75190;HTU21D;69198;44.694;37.790;2023-05-18T06:19:47;25.45;33.32
75190;HTU21D;69198;44.694;37.790;2023-05-18T06:20:51;25.49;33.03
75190;HTU21D;69198;44.694;37.790;2023-05-18T06:21:54;25.48;33.36
75190;HTU21D;69198;44.694;37.790;2023-05-18T06:22:58;25.52;33.60
75190;HTU21D;69198;44.694;37.790;2023-05-18T06:24:28;25.46;32.63
75190;HTU21D;69198;44.694;37.790;2023-05-18T06:26:04;25.38;33.09
75190;HTU21D;69198;44.694;37.790;2023-05-18T06:27:11;25.43;33.00
75190;HTU21D;69198;44.694;37.790;2023-05-18T06:28:19;25.44;33.16
75190;HTU21D;69198;44.694;37.790;2023-05-18T06:29:28;25.48;33.12
75190;HTU21D;69198;44.694;37.790;2023-05-18T06:30:59;25.49;32.82
75190;HTU21D;69198;44.694;37.790;2023-05-18T06:32:18;25.52;32.51
75190;HTU21D;69198;44.694;37.790;2023-05-18T06:33:26;25.50;33.02
75190;HTU21D;69198;44.694;37.790;2023-05-18T06:34:28;25.54;32.84